Time;durP1;ratioP1;P1;durP2;ratioP2;P2;SDS_P1;SDS_P2;PMS_P1;PMS_P2;Temp;Humidity;BMP_temperature;BMP_pressure;BME280_temperature;BME280_humidity;BME280_pressure;Samples;Min_cycle;Max_cycle;Signal;HPM_P1;HPM_P2
2023/07/01 00:02:10;;;;;;;5.85;2.80;;;;;;;;;;5059394;28;20227;-72
2023/07/01 00:04:35;;;;;;;9.70;2.65;;;;;;;;;;5075201;28;20192;-72
2023/07/01 00:07:00;;;;;;;9.80;2.70;;;;;;;;;;5079485;28;20229;-72
2023/07/01 00:09:26;;;;;;;8.75;2.72;;;;;;;;;;5079620;28;20208;-72
2023/07/01 00:11:51;;;;;;;10.02;2.70;;;;;;;;;;5074047;28;20192;-72
2023/07/01 00:14:17;;;;;;;8.23;3.20;;;;;;;;;;5082872;28;20190;-72
2023/07/01 00:16:42;;;;;;;7.88;2.65;;;;;;;;;;5080190;28;20206;-73
2023/07/01 00:19:08;;;;;;;8.32;2.60;;;;;;;;;;5076568;28;20207;-72
2023/07/01 00:21:33;;;;;;;4.68;2.53;;;;;;;;;;5074394;28;20196;-72
2023/07/01 00:23:59;;;;;;;6.75;2.97;;;;;;;;;;5080828;28;20193;-72
2023/07/01 00:26:25;;;;;;;7.13;2.80;;;;;;;;;;5078868;28;20667;-72
2023/07/01 00:28:52;;;;;;;12.55;2.88;;;;;;;;;;5079997;28;20295;-70
2023/07/01 00:31:17;;;;;;;11.13;3.30;;;;;;;;;;5080462;28;20647;-72
2023/07/01 00:33:43;;;;;;;13.25;3.67;;;;;;;;;;5087546;28;20190;-72
2023/07/01 00:36:08;;;;;;;15.00;3.35;;;;;;;;;;5078326;28;20215;-72
2023/07/01 00:38:34;;;;;;;9.50;3.20;;;;;;;;;;5081817;28;20377;-72
2023/07/01 00:40:59;;;;;;;5.88;2.90;;;;;;;;;;5080262;28;20601;-73
2023/07/01 00:43:24;;;;;;;8.02;2.72;;;;;;;;;;5081789;28;20181;-71
2023/07/01 00:45:50;;;;;;;9.55;2.92;;;;;;;;;;5078527;28;20227;-72
2023/07/01 00:48:25;;;;;;;12.38;2.63;;;;;;;;;;5078823;28;20201;-71
2023/07/01 00:50:52;;;;;;;10.32;3.13;;;;;;;;;;5078588;28;20254;-70
2023/07/01 00:53:17;;;;;;;10.43;2.72;;;;;;;;;;5087444;28;20195;-72
2023/07/01 00:55:42;;;;;;;6.57;3.03;;;;;;;;;;5083217;28;20201;-72
2023/07/01 00:58:08;;;;;;;7.15;2.60;;;;;;;;;;5085896;28;20177;-70
2023/07/01 01:00:34;;;;;;;5.40;2.65;;;;;;;;;;5072865;28;20240;-72
2023/07/01 01:03:30;;;;;;;4.93;2.45;;;;;;;;;;5085001;28;20184;-69
2023/07/01 01:06:03;;;;;;;7.93;2.35;;;;;;;;;;5081545;28;20216;-72
2023/07/01 01:08:40;;;;;;;10.88;3.08;;;;;;;;;;5071317;28;20214;-72
2023/07/01 01:11:06;;;;;;;6.05;2.30;;;;;;;;;;5083662;28;20192;-73
2023/07/01 01:13:32;;;;;;;7.60;2.30;;;;;;;;;;5077639;28;20599;-71
2023/07/01 01:15:58;;;;;;;7.57;2.25;;;;;;;;;;5083458;28;20554;-72
2023/07/01 01:18:28;;;;;;;10.02;2.38;;;;;;;;;;5080249;28;20238;-70
2023/07/01 01:20:56;;;;;;;6.05;2.55;;;;;;;;;;5090271;28;20192;-72
2023/07/01 01:23:32;;;;;;;7.40;2.65;;;;;;;;;;5088911;28;20283;-73
2023/07/01 01:26:18;;;;;;;5.00;2.45;;;;;;;;;;5085965;28;20266;-70
2023/07/01 01:28:44;;;;;;;11.32;2.70;;;;;;;;;;5089554;28;20219;-73
2023/07/01 01:31:11;;;;;;;7.22;2.83;;;;;;;;;;5083509;28;20197;-72
2023/07/01 01:33:37;;;;;;;7.85;2.40;;;;;;;;;;5087523;28;20615;-68
2023/07/01 01:36:15;;;;;;;5.60;2.20;;;;;;;;;;5071238;28;20268;-70
2023/07/01 01:38:43;;;;;;;7.28;2.17;;;;;;;;;;5074023;28;20189;-73
2023/07/01 01:41:22;;;;;;;7.72;2.75;;;;;;;;;;5080744;28;20274;-73
2023/07/01 01:43:59;;;;;;;5.18;2.33;;;;;;;;;;5088107;28;20192;-69
2023/07/01 01:46:26;;;;;;;4.80;2.30;;;;;;;;;;5071937;28;20203;-72
2023/07/01 01:48:54;;;;;;;5.00;2.50;;;;;;;;;;5082297;28;20296;-69
2023/07/01 01:51:22;;;;;;;6.80;2.58;;;;;;;;;;5081899;28;20198;-71
2023/07/01 01:53:48;;;;;;;8.80;2.40;;;;;;;;;;5087210;28;20289;-71
2023/07/01 01:56:14;;;;;;;5.43;2.03;;;;;;;;;;5090078;28;20282;-72
2023/07/01 01:58:40;;;;;;;5.55;2.38;;;;;;;;;;5089005;28;20739;-69
2023/07/01 02:01:05;;;;;;;5.88;2.28;;;;;;;;;;5081417;28;20204;-70
2023/07/01 02:03:31;;;;;;;4.70;2.50;;;;;;;;;;5090073;28;20184;-71
2023/07/01 02:05:56;;;;;;;6.78;2.40;;;;;;;;;;5076865;28;20615;-71
2023/07/01 02:08:22;;;;;;;5.15;2.50;;;;;;;;;;5077146;28;20211;-72
2023/07/01 02:10:47;;;;;;;6.65;2.28;;;;;;;;;;5089162;28;20207;-71
2023/07/01 02:13:12;;;;;;;6.03;2.70;;;;;;;;;;5089277;28;20196;-72
2023/07/01 02:15:38;;;;;;;6.60;2.42;;;;;;;;;;5089715;28;20568;-73
2023/07/01 02:18:03;;;;;;;6.13;2.22;;;;;;;;;;5075766;28;20280;-72
2023/07/01 02:20:29;;;;;;;8.07;2.33;;;;;;;;;;5088725;28;20191;-72
2023/07/01 02:22:55;;;;;;;9.52;2.75;;;;;;;;;;5088464;28;20194;-72
2023/07/01 02:25:20;;;;;;;7.93;2.30;;;;;;;;;;5083037;28;20246;-72
2023/07/01 02:27:45;;;;;;;4.63;2.15;;;;;;;;;;5071657;28;20200;-69
2023/07/01 02:30:11;;;;;;;7.15;2.20;;;;;;;;;;5083347;28;20628;-72
2023/07/01 02:32:36;;;;;;;6.68;2.10;;;;;;;;;;5080451;28;20231;-72
2023/07/01 02:35:02;;;;;;;7.72;2.17;;;;;;;;;;5076689;28;20192;-73
2023/07/01 02:37:27;;;;;;;6.25;1.77;;;;;;;;;;5081964;28;20192;-73
2023/07/01 02:39:53;;;;;;;8.38;2.28;;;;;;;;;;5074996;28;20211;-71
2023/07/01 02:42:21;;;;;;;7.63;2.17;;;;;;;;;;5084285;28;20293;-71
2023/07/01 02:44:47;;;;;;;4.68;2.28;;;;;;;;;;5087815;28;20196;-73
2023/07/01 02:47:14;;;;;;;5.78;2.03;;;;;;;;;;5086355;28;20225;-70
2023/07/01 02:49:42;;;;;;;6.03;2.47;;;;;;;;;;5084358;28;20227;-72
2023/07/01 02:52:11;;;;;;;4.65;1.90;;;;;;;;;;5068112;28;20289;-71
2023/07/01 02:54:40;;;;;;;11.27;2.70;;;;;;;;;;5083718;28;20194;-73
2023/07/01 02:57:08;;;;;;;5.78;2.15;;;;;;;;;;5079976;28;20200;-72
2023/07/01 02:59:34;;;;;;;10.05;2.40;;;;;;;;;;5086473;28;20655;-73
2023/07/01 03:02:00;;;;;;;4.65;2.28;;;;;;;;;;5089468;28;20691;-73
2023/07/01 03:04:25;;;;;;;6.22;2.05;;;;;;;;;;5085058;28;20192;-70
2023/07/01 03:06:50;;;;;;;8.02;2.47;;;;;;;;;;5074675;28;20188;-73
2023/07/01 03:09:16;;;;;;;2.97;1.65;;;;;;;;;;5079303;28;20220;-73
2023/07/01 03:11:42;;;;;;;7.75;2.28;;;;;;;;;;5079159;28;20656;-73
2023/07/01 03:14:07;;;;;;;7.97;2.63;;;;;;;;;;5072186;28;20196;-72
2023/07/01 03:16:32;;;;;;;6.40;2.35;;;;;;;;;;5074669;28;20195;-72
2023/07/01 03:18:58;;;;;;;5.82;1.95;;;;;;;;;;5073990;28;20184;-72
2023/07/01 03:21:25;;;;;;;4.85;2.33;;;;;;;;;;5089229;28;20498;-73
2023/07/01 03:23:50;;;;;;;5.93;2.05;;;;;;;;;;5084304;28;20667;-72
2023/07/01 03:26:16;;;;;;;9.05;2.22;;;;;;;;;;5077239;28;20180;-69
2023/07/01 03:28:42;;;;;;;4.00;2.08;;;;;;;;;;5087536;28;20211;-72
2023/07/01 03:31:08;;;;;;;5.68;2.53;;;;;;;;;;5087175;28;20685;-74
2023/07/01 03:33:33;;;;;;;4.90;2.30;;;;;;;;;;5086492;28;20195;-72
2023/07/01 03:35:59;;;;;;;6.03;2.10;;;;;;;;;;5072331;28;20220;-70
2023/07/01 03:38:24;;;;;;;5.55;2.58;;;;;;;;;;5080144;28;20184;-72
2023/07/01 03:40:50;;;;;;;8.40;2.60;;;;;;;;;;5057254;28;20314;-68
2023/07/01 03:43:16;;;;;;;7.30;2.17;;;;;;;;;;5076720;28;20184;-70
2023/07/01 03:45:41;;;;;;;5.00;2.42;;;;;;;;;;5088042;28;20184;-71
2023/07/01 03:48:07;;;;;;;3.55;2.05;;;;;;;;;;5082301;28;20270;-72
2023/07/01 03:50:32;;;;;;;3.50;1.75;;;;;;;;;;5078617;28;20199;-72
2023/07/01 03:52:57;;;;;;;9.32;2.30;;;;;;;;;;5068041;28;20280;-72
2023/07/01 03:55:23;;;;;;;5.38;1.85;;;;;;;;;;5087085;28;20577;-73
2023/07/01 03:57:48;;;;;;;4.25;2.00;;;;;;;;;;5083098;28;20196;-72
2023/07/01 04:00:17;;;;;;;6.90;3.10;;;;;;;;;;5078314;28;20192;-70
2023/07/01 04:02:50;;;;;;;4.28;2.03;;;;;;;;;;5086965;28;20245;-71
2023/07/01 04:05:16;;;;;;;4.18;2.10;;;;;;;;;;5074469;28;20190;-72
2023/07/01 04:07:44;;;;;;;3.58;2.00;;;;;;;;;;5078944;28;20215;-73
2023/07/01 04:10:10;;;;;;;6.55;2.30;;;;;;;;;;5075697;28;20541;-72
2023/07/01 04:12:38;;;;;;;4.22;2.08;;;;;;;;;;5088936;28;20283;-71
2023/07/01 04:15:09;;;;;;;4.82;2.30;;;;;;;;;;5079427;28;20664;-73
2023/07/01 04:17:35;;;;;;;6.15;2.13;;;;;;;;;;5061807;28;20188;-73
2023/07/01 04:20:01;;;;;;;5.68;2.15;;;;;;;;;;5077337;28;20185;-73
2023/07/01 04:22:27;;;;;;;7.70;2.22;;;;;;;;;;5071302;28;20219;-69
2023/07/01 04:24:52;;;;;;;5.68;2.20;;;;;;;;;;5085886;28;20191;-73
2023/07/01 04:27:17;;;;;;;4.22;1.95;;;;;;;;;;5081359;28;20611;-73
2023/07/01 04:29:43;;;;;;;8.02;2.15;;;;;;;;;;5077250;28;20199;-73
2023/07/01 04:32:08;;;;;;;5.22;2.05;;;;;;;;;;5073528;28;20193;-69
2023/07/01 04:34:35;;;;;;;5.50;2.10;;;;;;;;;;5085169;28;20200;-72
2023/07/01 04:37:01;;;;;;;4.43;2.00;;;;;;;;;;5069117;28;20301;-69
2023/07/01 04:39:26;;;;;;;3.67;1.90;;;;;;;;;;5076171;28;20343;-70
2023/07/01 04:41:51;;;;;;;8.10;2.22;;;;;;;;;;5069070;28;20229;-73
2023/07/01 04:44:17;;;;;;;8.20;2.53;;;;;;;;;;5071713;28;20715;-70
2023/07/01 04:46:42;;;;;;;4.60;2.30;;;;;;;;;;5074151;28;20199;-72
2023/07/01 04:49:10;;;;;;;4.60;2.58;;;;;;;;;;5080690;28;20243;-73
2023/07/01 04:51:38;;;;;;;8.15;2.63;;;;;;;;;;5083092;28;20360;-72
2023/07/01 04:54:04;;;;;;;5.18;2.05;;;;;;;;;;5085546;28;20257;-72
2023/07/01 04:56:30;;;;;;;4.60;1.92;;;;;;;;;;5074771;28;20227;-72
2023/07/01 04:58:55;;;;;;;6.32;1.95;;;;;;;;;;5081998;28;20181;-71
2023/07/01 05:01:21;;;;;;;6.05;2.20;;;;;;;;;;5072612;28;20265;-69
2023/07/01 05:03:46;;;;;;;6.57;2.30;;;;;;;;;;5078228;28;20587;-72
2023/07/01 05:06:11;;;;;;;4.30;2.53;;;;;;;;;;5071614;28;20275;-72
2023/07/01 05:08:37;;;;;;;4.47;1.98;;;;;;;;;;5083132;28;20204;-72
2023/07/01 05:11:03;;;;;;;6.25;2.33;;;;;;;;;;5080361;28;20235;-70
2023/07/01 05:13:29;;;;;;;4.80;2.40;;;;;;;;;;5073954;28;20177;-70
2023/07/01 05:15:54;;;;;;;5.65;2.60;;;;;;;;;;5072904;28;20562;-72
2023/07/01 05:18:19;;;;;;;8.05;2.00;;;;;;;;;;5084521;28;20216;-72
2023/07/01 05:20:45;;;;;;;3.20;2.05;;;;;;;;;;5075970;28;20179;-72
2023/07/01 05:23:10;;;;;;;5.05;2.17;;;;;;;;;;5076309;28;20325;-73
2023/07/01 05:25:35;;;;;;;5.97;2.03;;;;;;;;;;5082378;28;20280;-70
2023/07/01 05:28:01;;;;;;;4.85;2.25;;;;;;;;;;5080608;28;20217;-71
2023/07/01 05:30:26;;;;;;;5.88;2.42;;;;;;;;;;5070393;28;20189;-70
2023/07/01 05:32:51;;;;;;;3.22;2.40;;;;;;;;;;5074709;28;20271;-70
2023/07/01 05:35:17;;;;;;;8.80;3.03;;;;;;;;;;5073638;28;20207;-72
2023/07/01 05:37:42;;;;;;;5.47;2.20;;;;;;;;;;5075662;28;20253;-72
2023/07/01 05:40:08;;;;;;;4.63;2.13;;;;;;;;;;5080638;28;20679;-72
2023/07/01 05:42:34;;;;;;;4.15;2.38;;;;;;;;;;5074366;28;20200;-69
2023/07/01 05:44:59;;;;;;;4.18;2.20;;;;;;;;;;5074568;28;20463;-73
2023/07/01 05:47:25;;;;;;;5.32;2.53;;;;;;;;;;5070993;28;20185;-71
2023/07/01 05:49:50;;;;;;;3.83;2.30;;;;;;;;;;5072973;28;20231;-72
2023/07/01 05:52:15;;;;;;;3.75;2.35;;;;;;;;;;5084846;28;20200;-73
2023/07/01 05:54:41;;;;;;;4.50;2.20;;;;;;;;;;5082880;28;20692;-73
2023/07/01 05:57:06;;;;;;;3.90;2.45;;;;;;;;;;5083776;28;20448;-72
2023/07/01 05:59:32;;;;;;;6.53;2.30;;;;;;;;;;5073346;28;20196;-72
2023/07/01 06:01:57;;;;;;;3.28;1.98;;;;;;;;;;5077101;28;20314;-69
2023/07/01 06:04:22;;;;;;;3.00;1.80;;;;;;;;;;5083881;28;20199;-71
2023/07/01 06:06:48;;;;;;;5.80;2.08;;;;;;;;;;5074711;28;20223;-72
2023/07/01 06:09:15;;;;;;;7.70;2.28;;;;;;;;;;5072385;28;20863;-72
2023/07/01 06:11:40;;;;;;;5.15;2.30;;;;;;;;;;5081438;28;20193;-70
2023/07/01 06:14:06;;;;;;;4.18;2.47;;;;;;;;;;5081230;28;20677;-69
2023/07/01 06:16:31;;;;;;;4.82;2.17;;;;;;;;;;5082254;28;20344;-69
2023/07/01 06:18:56;;;;;;;3.78;2.25;;;;;;;;;;5086694;28;20184;-68
2023/07/01 06:21:22;;;;;;;3.47;2.30;;;;;;;;;;5079470;28;20688;-71
2023/07/01 06:23:47;;;;;;;4.90;1.90;;;;;;;;;;5086157;28;20309;-72
2023/07/01 06:26:13;;;;;;;7.55;2.03;;;;;;;;;;5072266;28;20526;-68
2023/07/01 06:28:38;;;;;;;2.28;1.85;;;;;;;;;;5074677;28;20248;-66
2023/07/01 06:31:04;;;;;;;6.10;2.25;;;;;;;;;;5073143;28;20189;-70
2023/07/01 06:33:29;;;;;;;4.50;2.17;;;;;;;;;;5077219;28;20283;-71
2023/07/01 06:35:55;;;;;;;7.10;2.47;;;;;;;;;;5087300;28;20223;-73
2023/07/01 06:38:20;;;;;;;2.45;1.90;;;;;;;;;;5072146;28;20648;-72
2023/07/01 06:40:46;;;;;;;4.47;2.38;;;;;;;;;;5078617;28;20730;-70
2023/07/01 06:43:11;;;;;;;3.28;2.72;;;;;;;;;;5087171;28;20195;-72
2023/07/01 06:45:37;;;;;;;5.15;2.60;;;;;;;;;;5087251;28;20264;-70
2023/07/01 06:48:03;;;;;;;4.38;2.40;;;;;;;;;;5083879;28;20197;-72
2023/07/01 06:50:29;;;;;;;5.35;2.20;;;;;;;;;;5071736;28;20434;-68
2023/07/01 06:52:54;;;;;;;4.05;1.90;;;;;;;;;;5072293;28;21685;-72
2023/07/01 06:55:19;;;;;;;4.90;2.50;;;;;;;;;;5074499;28;20200;-71
2023/07/01 06:57:45;;;;;;;3.05;2.42;;;;;;;;;;5077780;28;20288;-69
2023/07/01 07:00:12;;;;;;;5.22;2.17;;;;;;;;;;5074017;28;20651;-70
2023/07/01 07:02:38;;;;;;;2.50;2.13;;;;;;;;;;5084364;28;20188;-72
2023/07/01 07:05:08;;;;;;;4.32;2.63;;;;;;;;;;5079067;28;20274;-69
2023/07/01 07:07:34;;;;;;;2.95;2.10;;;;;;;;;;5071505;28;20220;-69
2023/07/01 07:09:59;;;;;;;2.80;2.28;;;;;;;;;;5088972;28;20188;-69
2023/07/01 07:12:25;;;;;;;4.15;2.38;;;;;;;;;;5081303;28;20181;-70
2023/07/01 07:14:50;;;;;;;3.60;2.10;;;;;;;;;;5073289;28;20284;-72
2023/07/01 07:17:16;;;;;;;3.42;2.60;;;;;;;;;;5073338;28;20184;-71
2023/07/01 07:19:41;;;;;;;4.57;2.53;;;;;;;;;;5080124;28;20192;-71
2023/07/01 07:22:07;;;;;;;2.60;2.40;;;;;;;;;;5072319;28;20238;-72
2023/07/01 07:24:32;;;;;;;5.35;2.55;;;;;;;;;;5077608;28;20195;-72
2023/07/01 07:27:01;;;;;;;4.22;2.20;;;;;;;;;;5077646;28;20645;-72
2023/07/01 07:29:29;;;;;;;4.32;2.78;;;;;;;;;;5072804;28;20295;-73
2023/07/01 07:31:55;;;;;;;3.55;2.30;;;;;;;;;;5076219;28;20606;-72
2023/07/01 07:34:21;;;;;;;4.05;2.30;;;;;;;;;;5074391;28;20697;-70
2023/07/01 07:36:47;;;;;;;3.08;2.20;;;;;;;;;;5073642;28;20184;-70
2023/07/01 07:39:13;;;;;;;3.03;2.50;;;;;;;;;;5088213;28;20173;-69
2023/07/01 07:41:39;;;;;;;4.13;2.53;;;;;;;;;;5065680;28;20240;-68
2023/07/01 07:44:05;;;;;;;5.20;2.70;;;;;;;;;;5079102;28;20184;-73
2023/07/01 07:46:31;;;;;;;2.40;2.20;;;;;;;;;;5077548;28;20539;-69
2023/07/01 07:48:56;;;;;;;4.50;2.30;;;;;;;;;;5076632;28;20223;-69
2023/07/01 07:51:22;;;;;;;4.40;2.53;;;;;;;;;;5079991;28;20279;-71
2023/07/01 07:53:47;;;;;;;2.67;2.38;;;;;;;;;;5086667;28;20286;-68
2023/07/01 07:56:13;;;;;;;3.22;2.72;;;;;;;;;;5078480;28;20188;-68
2023/07/01 07:58:38;;;;;;;2.50;2.30;;;;;;;;;;5078004;28;20709;-73
2023/07/01 08:01:03;;;;;;;3.25;2.65;;;;;;;;;;5085482;28;20265;-72
2023/07/01 08:03:29;;;;;;;4.82;3.00;;;;;;;;;;5081177;28;20181;-72
2023/07/01 08:05:54;;;;;;;3.70;2.67;;;;;;;;;;5080358;28;20188;-73
2023/07/01 08:08:19;;;;;;;5.95;2.85;;;;;;;;;;5074097;28;20193;-68
2023/07/01 08:10:45;;;;;;;4.05;3.00;;;;;;;;;;5074069;28;20188;-72
2023/07/01 08:13:14;;;;;;;5.32;3.10;;;;;;;;;;5073184;28;20679;-72
2023/07/01 08:15:41;;;;;;;3.10;2.80;;;;;;;;;;5075014;28;20200;-70
2023/07/01 08:18:07;;;;;;;5.22;2.72;;;;;;;;;;5081797;28;20214;-68
2023/07/01 08:20:33;;;;;;;4.15;2.70;;;;;;;;;;5076437;28;20636;-69
2023/07/01 08:22:58;;;;;;;3.92;3.08;;;;;;;;;;5078044;28;20195;-70
2023/07/01 08:25:24;;;;;;;3.55;2.88;;;;;;;;;;5088100;28;20605;-71
2023/07/01 08:27:49;;;;;;;3.03;2.70;;;;;;;;;;5087399;28;20204;-69
2023/07/01 08:30:15;;;;;;;2.65;2.45;;;;;;;;;;5076586;28;20223;-71
2023/07/01 08:32:41;;;;;;;3.80;3.17;;;;;;;;;;5088486;28;20647;-70
2023/07/01 08:35:07;;;;;;;3.33;3.03;;;;;;;;;;5077831;28;20199;-69
2023/07/01 08:37:33;;;;;;;2.90;2.70;;;;;;;;;;5079810;28;20192;-72
2023/07/01 08:39:59;;;;;;;3.38;3.08;;;;;;;;;;5084313;28;20667;-71
2023/07/01 08:42:31;;;;;;;6.70;2.70;;;;;;;;;;5080423;28;20234;-69
2023/07/01 08:44:57;;;;;;;3.95;2.92;;;;;;;;;;5085034;28;20189;-70
2023/07/01 08:47:25;;;;;;;4.43;3.03;;;;;;;;;;5061053;28;20196;-71
2023/07/01 08:49:53;;;;;;;3.90;2.78;;;;;;;;;;5077760;28;20198;-70
2023/07/01 08:52:21;;;;;;;2.97;2.65;;;;;;;;;;5073723;28;20220;-70
2023/07/01 08:54:48;;;;;;;3.22;3.00;;;;;;;;;;5079233;28;20594;-73
2023/07/01 08:57:14;;;;;;;4.57;3.05;;;;;;;;;;5076327;28;20276;-72
2023/07/01 08:59:42;;;;;;;3.08;2.78;;;;;;;;;;5082904;28;20670;-69
2023/07/01 09:02:08;;;;;;;3.10;2.90;;;;;;;;;;5084564;28;20303;-70
2023/07/01 09:04:37;;;;;;;3.42;2.88;;;;;;;;;;5079986;28;20255;-68
2023/07/01 09:07:03;;;;;;;5.20;3.13;;;;;;;;;;5083838;28;20595;-72
2023/07/01 09:09:28;;;;;;;3.78;3.47;;;;;;;;;;5075699;28;20216;-72
2023/07/01 09:11:54;;;;;;;3.22;2.92;;;;;;;;;;5078156;28;20201;-72
2023/07/01 09:14:19;;;;;;;4.03;2.88;;;;;;;;;;5073568;28;20342;-69
2023/07/01 09:16:45;;;;;;;3.55;3.25;;;;;;;;;;5081298;28;20203;-70
2023/07/01 09:19:14;;;;;;;3.83;3.05;;;;;;;;;;5082491;28;20283;-70
2023/07/01 09:21:40;;;;;;;5.75;3.33;;;;;;;;;;5077908;28;20184;-72
2023/07/01 09:24:06;;;;;;;3.55;3.22;;;;;;;;;;5090453;28;20192;-73
2023/07/01 09:26:32;;;;;;;4.78;3.50;;;;;;;;;;5079824;28;20739;-69
2023/07/01 09:28:59;;;;;;;4.45;3.30;;;;;;;;;;5069937;28;20252;-72
2023/07/01 09:31:28;;;;;;;3.85;3.53;;;;;;;;;;5069982;28;20607;-73
2023/07/01 09:34:01;;;;;;;3.67;3.30;;;;;;;;;;5070182;28;20693;-74
2023/07/01 09:36:29;;;;;;;4.45;3.10;;;;;;;;;;5072384;28;20193;-71
2023/07/01 09:38:55;;;;;;;3.63;3.28;;;;;;;;;;5083858;28;20453;-72
2023/07/01 09:41:24;;;;;;;3.53;3.20;;;;;;;;;;5084532;28;20579;-72
2023/07/01 09:43:55;;;;;;;3.17;2.88;;;;;;;;;;5078989;28;20215;-70
2023/07/01 09:46:22;;;;;;;3.25;2.95;;;;;;;;;;5075775;28;20695;-69
2023/07/01 09:48:55;;;;;;;3.22;2.92;;;;;;;;;;5074855;28;20445;-69
2023/07/01 09:51:29;;;;;;;3.45;2.92;;;;;;;;;;5070975;28;20197;-70
2023/07/01 09:53:55;;;;;;;3.10;2.90;;;;;;;;;;5075976;28;20683;-72
2023/07/01 09:56:20;;;;;;;3.20;2.92;;;;;;;;;;5087990;28;20363;-68
2023/07/01 09:58:47;;;;;;;2.72;2.53;;;;;;;;;;5082849;28;20647;-71
2023/07/01 10:01:14;;;;;;;3.25;3.03;;;;;;;;;;5081730;28;20200;-72
2023/07/01 10:03:41;;;;;;;3.10;2.90;;;;;;;;;;5090112;28;20220;-71
2023/07/01 10:06:07;;;;;;;3.05;2.80;;;;;;;;;;5087138;28;20524;-71
2023/07/01 10:08:33;;;;;;;4.07;3.30;;;;;;;;;;5075638;28;20200;-69
2023/07/01 10:11:09;;;;;;;3.70;3.38;;;;;;;;;;5071724;28;20534;-72
2023/07/01 10:13:43;;;;;;;3.50;3.20;;;;;;;;;;5076232;28;20268;-72
2023/07/01 10:16:09;;;;;;;3.50;3.20;;;;;;;;;;5077902;28;20175;-69
2023/07/01 10:18:35;;;;;;;3.55;3.22;;;;;;;;;;5070112;28;20184;-68
2023/07/01 10:21:25;;;;;;;3.88;3.33;;;;;;;;;;5076422;28;20238;-71
2023/07/01 10:23:52;;;;;;;3.60;3.15;;;;;;;;;;5075763;28;20729;-71
2023/07/01 10:26:37;;;;;;;4.10;2.95;;;;;;;;;;5081638;28;20188;-70
2023/07/01 10:29:32;;;;;;;3.22;2.85;;;;;;;;;;5073698;28;20310;-73
2023/07/01 10:32:13;;;;;;;3.05;2.85;;;;;;;;;;5072517;28;20185;-71
2023/07/01 10:34:54;;;;;;;3.00;2.67;;;;;;;;;;5080328;28;20306;-71
2023/07/01 10:37:22;;;;;;;2.47;2.28;;;;;;;;;;5076152;28;20557;-71
2023/07/01 10:39:48;;;;;;;3.17;2.88;;;;;;;;;;5077365;28;20536;-72
2023/07/01 10:42:31;;;;;;;3.85;3.00;;;;;;;;;;5075218;28;20228;-72
2023/07/01 10:45:11;;;;;;;3.83;3.15;;;;;;;;;;5082968;28;20188;-71
2023/07/01 10:47:43;;;;;;;3.25;3.05;;;;;;;;;;5071641;28;20726;-70
2023/07/01 10:50:10;;;;;;;2.97;2.78;;;;;;;;;;5073106;28;20549;-71
2023/07/01 10:52:57;;;;;;;3.58;3.08;;;;;;;;;;5084975;28;20305;-71
2023/07/01 10:55:40;;;;;;;3.03;2.83;;;;;;;;;;5074188;28;20725;-70
2023/07/01 10:58:28;;;;;;;3.05;2.72;;;;;;;;;;5073440;28;20177;-73
2023/07/01 11:00:54;;;;;;;3.13;2.90;;;;;;;;;;5081578;28;20212;-69
2023/07/01 11:03:42;;;;;;;3.35;2.90;;;;;;;;;;5085533;28;20753;-71
2023/07/01 11:06:11;;;;;;;3.47;3.10;;;;;;;;;;5080102;28;20211;-68
2023/07/01 11:08:45;;;;;;;3.20;2.90;;;;;;;;;;5085124;28;20200;-70
2023/07/01 11:11:11;;;;;;;3.92;3.33;;;;;;;;;;5074905;28;20215;-70
2023/07/01 11:13:37;;;;;;;3.75;2.90;;;;;;;;;;5085635;28;20189;-69
2023/07/01 11:16:07;;;;;;;3.60;3.30;;;;;;;;;;5084344;28;20338;-73
2023/07/01 11:18:52;;;;;;;3.70;3.40;;;;;;;;;;5080964;28;20187;-73
2023/07/01 11:21:23;;;;;;;4.45;3.92;;;;;;;;;;5079458;28;20195;-73
2023/07/01 11:23:55;;;;;;;3.85;3.55;;;;;;;;;;5083648;28;20211;-67
2023/07/01 11:26:23;;;;;;;4.00;3.70;;;;;;;;;;5083995;28;20245;-70
2023/07/01 11:28:49;;;;;;;4.22;3.92;;;;;;;;;;5082036;28;20219;-71
2023/07/01 11:31:16;;;;;;;4.43;4.05;;;;;;;;;;5073413;28;20240;-73
2023/07/01 11:33:46;;;;;;;4.78;4.28;;;;;;;;;;5085687;28;20192;-71
2023/07/01 11:36:14;;;;;;;4.90;4.40;;;;;;;;;;5078418;28;20687;-71
2023/07/01 11:38:43;;;;;;;4.72;4.32;;;;;;;;;;5080926;28;20191;-71
2023/07/01 11:41:12;;;;;;;4.97;4.32;;;;;;;;;;5082427;28;20280;-73
2023/07/01 11:43:39;;;;;;;5.70;4.60;;;;;;;;;;5078541;28;20188;-71
2023/07/01 11:46:04;;;;;;;5.63;4.22;;;;;;;;;;5083799;28;20208;-73
2023/07/01 11:48:33;;;;;;;4.57;4.18;;;;;;;;;;5072786;28;20192;-68
2023/07/01 11:50:58;;;;;;;4.78;4.30;;;;;;;;;;5081170;28;20756;-71
2023/07/01 11:53:27;;;;;;;5.78;4.65;;;;;;;;;;5074270;28;20249;-75
2023/07/01 11:55:56;;;;;;;4.90;4.40;;;;;;;;;;5067918;28;20203;-73
2023/07/01 11:58:30;;;;;;;4.43;4.07;;;;;;;;;;5080609;28;20183;-73
2023/07/01 12:00:56;;;;;;;4.15;3.75;;;;;;;;;;5076917;28;20208;-74
2023/07/01 12:03:21;;;;;;;4.13;3.72;;;;;;;;;;5059317;28;20225;-72
2023/07/01 12:05:46;;;;;;;4.10;3.80;;;;;;;;;;5083320;28;20632;-73
2023/07/01 12:08:12;;;;;;;4.22;3.83;;;;;;;;;;5081851;28;20256;-72
2023/07/01 12:10:40;;;;;;;5.70;3.97;;;;;;;;;;5085422;28;20310;-72
2023/07/01 12:13:05;;;;;;;6.53;4.70;;;;;;;;;;5076141;28;20797;-72
2023/07/01 12:15:32;;;;;;;5.13;4.60;;;;;;;;;;5077712;28;20184;-70
2023/07/01 12:18:21;;;;;;;4.93;4.43;;;;;;;;;;5083558;28;20179;-71
2023/07/01 12:20:47;;;;;;;4.70;4.30;;;;;;;;;;5075225;28;20192;-72
2023/07/01 12:23:12;;;;;;;4.60;4.15;;;;;;;;;;5077283;28;20203;-73
2023/07/01 12:25:37;;;;;;;6.90;5.10;;;;;;;;;;5059563;28;20193;-68
2023/07/01 12:28:04;;;;;;;5.85;5.10;;;;;;;;;;5079084;28;20889;-69
2023/07/01 12:30:30;;;;;;;6.30;5.38;;;;;;;;;;5079344;28;20506;-70
2023/07/01 12:32:56;;;;;;;5.75;4.90;;;;;;;;;;5072329;28;20271;-71
2023/07/01 12:35:21;;;;;;;5.80;5.20;;;;;;;;;;5067958;28;20354;-73
2023/07/01 12:37:48;;;;;;;6.70;5.57;;;;;;;;;;5079283;28;20183;-72
2023/07/01 12:40:14;;;;;;;8.77;5.95;;;;;;;;;;5078887;28;20230;-70
2023/07/01 12:42:39;;;;;;;7.65;6.32;;;;;;;;;;5077927;28;20188;-71
2023/07/01 12:45:06;;;;;;;8.18;6.07;;;;;;;;;;5074257;28;20196;-70
2023/07/01 12:47:31;;;;;;;8.18;6.93;;;;;;;;;;5075923;28;20606;-73
2023/07/01 12:49:57;;;;;;;8.63;6.65;;;;;;;;;;5080286;28;20220;-72
2023/07/01 12:52:23;;;;;;;8.57;6.97;;;;;;;;;;5083795;28;20537;-71
2023/07/01 12:54:49;;;;;;;8.68;7.05;;;;;;;;;;5073240;28;20259;-71
2023/07/01 12:57:15;;;;;;;8.50;7.22;;;;;;;;;;5074130;28;20515;-74
2023/07/01 12:59:45;;;;;;;7.70;6.70;;;;;;;;;;5075037;28;20410;-70
2023/07/01 13:02:11;;;;;;;8.35;6.90;;;;;;;;;;5077278;28;20255;-71
2023/07/01 13:04:38;;;;;;;11.68;7.38;;;;;;;;;;5083139;28;20233;-71
2023/07/01 13:07:04;;;;;;;10.00;7.38;;;;;;;;;;5073811;28;20215;-73
2023/07/01 13:09:41;;;;;;;8.98;8.07;;;;;;;;;;5080082;28;20238;-72
2023/07/01 13:12:07;;;;;;;11.00;8.32;;;;;;;;;;5084311;28;20398;-72
2023/07/01 13:14:33;;;;;;;10.88;7.85;;;;;;;;;;5082738;28;20287;-71
2023/07/01 13:16:58;;;;;;;14.43;6.68;;;;;;;;;;5085141;28;20545;-74
2023/07/01 13:19:24;;;;;;;10.50;6.40;;;;;;;;;;5082672;28;20184;-72
2023/07/01 13:21:49;;;;;;;8.65;6.20;;;;;;;;;;5084157;28;20227;-72
2023/07/01 13:24:15;;;;;;;9.68;6.38;;;;;;;;;;5085901;28;20214;-72
2023/07/01 13:26:42;;;;;;;7.03;5.53;;;;;;;;;;5083715;28;20650;-72
2023/07/01 13:29:17;;;;;;;6.53;4.97;;;;;;;;;;5083184;28;20666;-72
2023/07/01 13:31:44;;;;;;;5.00;4.50;;;;;;;;;;5077032;28;20642;-71
2023/07/01 13:34:10;;;;;;;4.90;3.80;;;;;;;;;;5080114;28;20180;-72
2023/07/01 13:36:37;;;;;;;4.72;4.22;;;;;;;;;;5073928;28;20601;-72
2023/07/01 13:39:12;;;;;;;6.78;4.60;;;;;;;;;;5095785;28;20235;-71
2023/07/01 13:41:38;;;;;;;5.00;4.50;;;;;;;;;;5074541;28;20228;-72
2023/07/01 13:44:13;;;;;;;5.15;4.60;;;;;;;;;;5086056;28;20448;-72
2023/07/01 13:46:38;;;;;;;7.82;5.85;;;;;;;;;;5070855;28;20196;-73
2023/07/01 13:49:05;;;;;;;7.25;6.13;;;;;;;;;;4726856;28;10000306;-74
2023/07/01 13:51:38;;;;;;;8.75;6.28;;;;;;;;;;5083706;28;20184;-72
2023/07/01 13:54:06;;;;;;;9.18;7.07;;;;;;;;;;5083728;28;20679;-72
2023/07/01 13:56:33;;;;;;;8.65;7.55;;;;;;;;;;5076967;28;20185;-72
2023/07/01 13:58:58;;;;;;;9.13;7.10;;;;;;;;;;5080742;28;20192;-72
2023/07/01 14:01:24;;;;;;;8.15;6.85;;;;;;;;;;5082387;28;20214;-72
2023/07/01 14:03:56;;;;;;;7.97;7.10;;;;;;;;;;5085316;28;20562;-72
2023/07/01 14:06:22;;;;;;;10.07;7.25;;;;;;;;;;5078322;28;20227;-72
2023/07/01 14:08:47;;;;;;;7.78;6.95;;;;;;;;;;5076972;28;20247;-71
2023/07/01 14:11:19;;;;;;;10.18;7.75;;;;;;;;;;5054259;28;20267;-72
2023/07/01 14:13:49;;;;;;;10.15;7.93;;;;;;;;;;5055320;28;20180;-71
2023/07/01 14:16:17;;;;;;;10.88;7.72;;;;;;;;;;5067941;28;20219;-73
2023/07/01 14:18:44;;;;;;;8.30;6.75;;;;;;;;;;5079607;28;20249;-72
2023/07/01 14:21:09;;;;;;;9.32;7.63;;;;;;;;;;5083785;28;20192;-73
2023/07/01 14:23:37;;;;;;;14.25;8.35;;;;;;;;;;5077656;28;20211;-73
2023/07/01 14:26:03;;;;;;;9.88;7.78;;;;;;;;;;5085343;28;20203;-72
2023/07/01 14:28:29;;;;;;;8.80;7.70;;;;;;;;;;5086354;28;20212;-71
2023/07/01 14:31:26;;;;;;;9.00;7.75;;;;;;;;;;5081904;28;20257;-73
2023/07/01 14:33:54;;;;;;;8.02;6.90;;;;;;;;;;5108086;27;20619;-73
2023/07/01 14:36:26;;;;;;;10.00;5.90;;;;;;;;;;5085395;28;20192;-71
2023/07/01 14:38:52;;;;;;;7.50;6.18;;;;;;;;;;5073071;28;20200;-75
2023/07/01 14:41:22;;;;;;;8.60;7.05;;;;;;;;;;5083311;28;20223;-73
2023/07/01 14:43:50;;;;;;;7.75;6.72;;;;;;;;;;5081737;28;20196;-71
2023/07/01 14:46:16;;;;;;;9.32;6.30;;;;;;;;;;5087142;28;20522;-73